createdAt,value
2019-03-28T00:01:46.102Z,96.90
2019-03-28T00:04:12.090Z,96.90
2019-03-28T00:06:38.083Z,97.30
2019-03-28T00:09:07.728Z,97.70
2019-03-28T00:11:33.876Z,97.80
2019-03-28T00:14:00.016Z,98.00
2019-03-28T00:16:26.024Z,98.20
2019-03-28T00:18:52.016Z,98.50
2019-03-28T00:21:18.024Z,98.80
2019-03-28T00:23:51.739Z,99.10
2019-03-28T00:26:29.336Z,99.00
2019-03-28T00:28:45.924Z,98.40
2019-03-28T00:31:11.932Z,97.50
2019-03-28T00:33:37.916Z,97.30
2019-03-28T00:36:03.913Z,97.30
2019-03-28T00:38:29.904Z,97.40
2019-03-28T00:40:55.892Z,97.40
2019-03-28T00:43:22.171Z,97.70
2019-03-28T00:45:48.162Z,98.10
2019-03-28T00:48:14.154Z,97.40
2019-03-28T00:50:40.148Z,97.10
2019-03-28T00:53:06.398Z,97.30
2019-03-28T00:55:32.559Z,97.30
2019-03-28T00:57:58.560Z,96.90
2019-03-28T01:00:24.568Z,96.70
2019-03-28T01:02:50.568Z,97.20
2019-03-28T01:05:17.211Z,97.70
2019-03-28T01:07:43.499Z,98.30
2019-03-28T01:10:09.592Z,99.20
2019-03-28T01:12:35.584Z,99.90
2019-03-28T01:15:02.175Z,99.90
2019-03-28T01:17:28.197Z,99.90
2019-03-28T01:19:54.183Z,99.90
2019-03-28T01:22:20.200Z,99.90
2019-03-28T01:24:46.187Z,99.90
2019-03-28T01:27:12.192Z,99.90
2019-03-28T01:29:38.194Z,99.90
2019-03-28T01:32:04.187Z,99.90
2019-03-28T01:34:30.190Z,99.90
2019-03-28T01:36:56.380Z,99.90
2019-03-28T01:39:22.380Z,99.90
2019-03-28T01:41:48.367Z,99.90
2019-03-28T01:44:14.375Z,99.70
2019-03-28T01:46:40.568Z,99.90
2019-03-28T01:49:06.567Z,99.90
2019-03-28T01:51:32.566Z,99.90
2019-03-28T01:53:58.561Z,99.90
2019-03-28T01:56:25.148Z,99.90
2019-03-28T01:58:51.340Z,99.90
2019-03-28T02:01:17.332Z,99.90
2019-03-28T02:03:43.337Z,99.90
2019-03-28T02:06:09.396Z,99.90
2019-03-28T02:08:35.515Z,99.90
2019-03-28T02:11:01.813Z,99.90
2019-03-28T02:13:27.811Z,99.90
2019-03-28T02:15:53.801Z,99.90
2019-03-28T02:18:20.095Z,99.90
2019-03-28T02:20:46.095Z,99.90
2019-03-28T02:23:12.083Z,99.90
2019-03-28T02:25:38.091Z,99.90
2019-03-28T02:28:04.071Z,99.90
2019-03-28T02:30:31.196Z,99.90
2019-03-28T02:32:57.171Z,99.90
2019-03-28T02:35:23.172Z,99.90
2019-03-28T02:37:49.155Z,99.90
2019-03-28T02:40:15.250Z,99.90
2019-03-28T02:42:42.685Z,99.90
2019-03-28T02:45:08.795Z,99.90
2019-03-28T02:47:35.749Z,99.90
2019-03-28T02:50:03.901Z,99.90
2019-03-28T02:52:29.892Z,99.90
2019-03-28T02:54:55.897Z,99.90
2019-03-28T02:57:22.229Z,99.90
2019-03-28T02:59:48.701Z,99.90
2019-03-28T03:02:14.718Z,99.90
2019-03-28T03:04:40.695Z,99.90
2019-03-28T03:07:06.731Z,99.90
2019-03-28T03:09:32.797Z,99.90
2019-03-28T03:11:58.836Z,99.90
2019-03-28T03:14:24.837Z,99.90
2019-03-28T03:16:51.129Z,99.90
2019-03-28T03:19:17.145Z,99.90
2019-03-28T03:21:43.140Z,99.90
2019-03-28T03:24:09.146Z,99.90
2019-03-28T03:26:35.133Z,99.90
2019-03-28T03:29:01.157Z,99.90
2019-03-28T03:31:27.232Z,99.90
2019-03-28T03:33:53.513Z,99.90
2019-03-28T03:36:19.525Z,99.90
2019-03-28T03:38:45.756Z,99.90
2019-03-28T03:41:11.845Z,99.90
2019-03-28T03:43:37.857Z,99.90
2019-03-28T03:46:03.843Z,99.90
2019-03-28T03:48:29.850Z,99.90
2019-03-28T03:50:55.845Z,99.90
2019-03-28T03:53:21.848Z,99.90
2019-03-28T03:55:47.852Z,99.90
2019-03-28T03:58:16.551Z,99.90
2019-03-28T04:00:42.027Z,99.90
2019-03-28T04:03:08.024Z,99.90
2019-03-28T04:05:34.027Z,99.90
2019-03-28T04:08:00.316Z,99.90
2019-03-28T04:10:26.636Z,99.90
2019-03-28T04:12:52.624Z,99.90
2019-03-28T04:15:18.633Z,99.90
2019-03-28T04:17:44.640Z,99.90
2019-03-28T04:20:10.645Z,99.90
2019-03-28T04:22:37.098Z,99.90
2019-03-28T04:25:03.922Z,99.90
2019-03-28T04:27:29.897Z,99.90
2019-03-28T04:29:56.629Z,99.90
2019-03-28T04:32:22.699Z,99.90
2019-03-28T04:34:48.698Z,99.90
2019-03-28T04:37:14.948Z,99.90
2019-03-28T04:39:40.952Z,99.90
2019-03-28T04:42:06.959Z,99.90
2019-03-28T04:44:32.936Z,99.90
2019-03-28T04:46:58.941Z,99.90
2019-03-28T04:49:25.173Z,99.90
2019-03-28T04:51:51.172Z,99.90
2019-03-28T04:54:17.427Z,99.90
2019-03-28T04:56:43.656Z,99.90
2019-03-28T04:59:09.889Z,99.90
2019-03-28T05:01:36.219Z,99.90
2019-03-28T05:04:02.204Z,99.90
2019-03-28T05:06:28.203Z,99.90
2019-03-28T05:08:54.200Z,99.90
2019-03-28T05:11:20.202Z,99.90
2019-03-28T05:13:46.196Z,99.90
2019-03-28T05:16:12.216Z,99.90
2019-03-28T05:18:38.487Z,99.90
2019-03-28T05:21:04.817Z,99.90
2019-03-28T05:23:31.049Z,99.90
2019-03-28T05:25:57.276Z,99.90
2019-03-28T05:28:23.607Z,99.90
2019-03-28T05:30:49.588Z,99.90
2019-03-28T05:33:15.580Z,99.90
2019-03-28T05:35:41.569Z,99.90
2019-03-28T05:38:07.568Z,99.90
2019-03-28T05:40:33.854Z,99.90
2019-03-28T05:42:59.832Z,99.90
2019-03-28T05:45:25.833Z,99.90
2019-03-28T05:47:51.839Z,99.90
2019-03-28T05:50:18.138Z,99.90
2019-03-28T05:52:44.773Z,99.90
2019-03-28T05:55:10.772Z,99.90
2019-03-28T05:57:36.954Z,99.90
2019-03-28T06:00:04.451Z,99.90
2019-03-28T06:02:30.439Z,99.90
2019-03-28T06:04:56.444Z,99.90
2019-03-28T06:07:22.436Z,99.90
2019-03-28T06:09:48.448Z,99.90
2019-03-28T06:12:14.454Z,99.90
2019-03-28T06:14:40.732Z,99.90
2019-03-28T06:17:07.063Z,99.90
2019-03-28T06:19:33.074Z,99.90
2019-03-28T06:21:59.317Z,99.90
2019-03-28T06:24:25.336Z,99.90
2019-03-28T06:26:51.310Z,99.90
2019-03-28T06:29:23.658Z,99.90
2019-03-28T06:31:54.685Z,99.90
2019-03-28T06:34:13.225Z,99.90
2019-03-28T06:36:40.387Z,99.60
2019-03-28T06:39:06.640Z,97.10
2019-03-28T06:41:32.640Z,96.40
2019-03-28T06:43:58.649Z,94.80
2019-03-28T06:46:24.636Z,93.00
2019-03-28T06:48:50.632Z,92.00
2019-03-28T06:51:16.933Z,90.80
2019-03-28T06:53:43.165Z,90.20
2019-03-28T06:56:09.160Z,88.80
2019-03-28T06:58:35.152Z,87.90
2019-03-28T07:01:01.442Z,85.90
2019-03-28T07:03:27.427Z,83.90
2019-03-28T07:05:53.723Z,82.00
2019-03-28T07:08:19.788Z,78.50
2019-03-28T07:10:46.054Z,73.90
2019-03-28T07:13:12.052Z,71.50
2019-03-28T07:15:38.083Z,71.20
2019-03-28T07:18:04.082Z,70.10
2019-03-28T07:20:30.087Z,69.30
2019-03-28T07:22:56.085Z,68.30
2019-03-28T07:25:22.081Z,67.30
2019-03-28T07:27:48.080Z,65.50
2019-03-28T07:30:14.993Z,65.50
2019-03-28T07:32:43.325Z,61.10
2019-03-28T07:35:09.463Z,58.80
2019-03-28T07:37:35.456Z,56.00
2019-03-28T07:40:03.068Z,55.60
2019-03-28T07:42:29.060Z,55.30
2019-03-28T07:44:55.060Z,54.80
2019-03-28T07:47:21.060Z,54.40
2019-03-28T07:49:47.084Z,54.50
2019-03-28T07:52:13.096Z,53.30
2019-03-28T07:54:39.381Z,52.70
2019-03-28T07:57:05.685Z,47.70
2019-03-28T07:59:31.676Z,43.70
2019-03-28T08:01:57.700Z,38.80
2019-03-28T08:04:23.694Z,36.30
2019-03-28T08:06:50.524Z,34.40
2019-03-28T08:09:17.821Z,32.50
2019-03-28T08:11:43.928Z,32.30
2019-03-28T08:14:09.920Z,31.80
2019-03-28T08:16:35.928Z,30.70
2019-03-28T08:19:02.200Z,30.30
2019-03-28T08:21:28.439Z,30.10
2019-03-28T08:23:54.632Z,30.70
2019-03-28T08:26:21.200Z,31.40
2019-03-28T08:28:47.234Z,32.20
2019-03-28T08:31:13.342Z,33.20
2019-03-28T08:33:41.244Z,32.90
2019-03-28T08:36:07.236Z,32.40
2019-03-28T08:38:37.044Z,32.20
2019-03-28T08:41:03.294Z,32.50
2019-03-28T08:43:29.296Z,31.90
2019-03-28T08:45:55.301Z,31.20
2019-03-28T08:48:21.308Z,31.00
2019-03-28T08:50:47.325Z,30.00
2019-03-28T08:53:13.344Z,29.90
2019-03-28T08:55:39.351Z,30.00
2019-03-28T08:58:05.392Z,30.80
2019-03-28T09:00:35.291Z,32.20
2019-03-28T09:02:59.336Z,32.80
2019-03-28T09:05:25.403Z,33.80
2019-03-28T09:07:51.427Z,34.90
2019-03-28T09:10:17.444Z,36.60
2019-03-28T09:12:43.748Z,36.80
2019-03-28T09:15:10.594Z,37.70
2019-03-28T09:17:36.819Z,38.20
2019-03-28T09:20:07.451Z,39.60
2019-03-28T09:22:33.444Z,40.90
2019-03-28T09:24:59.708Z,42.30
2019-03-28T09:27:25.727Z,43.90
2019-03-28T09:29:51.736Z,44.70
2019-03-28T09:32:17.738Z,45.10
2019-03-28T09:34:44.016Z,46.10
2019-03-28T09:37:10.043Z,47.20
2019-03-28T09:39:36.113Z,48.10
2019-03-28T09:42:02.115Z,48.20
2019-03-28T09:44:28.112Z,49.90
2019-03-28T09:46:54.338Z,50.70
2019-03-28T09:49:20.356Z,50.60
2019-03-28T09:51:46.704Z,50.90
2019-03-28T09:54:12.712Z,51.60
2019-03-28T09:56:38.967Z,51.70
2019-03-28T09:59:04.942Z,52.20
2019-03-28T10:01:30.944Z,52.00
2019-03-28T10:03:56.948Z,52.30
2019-03-28T10:06:22.954Z,53.60
2019-03-28T10:08:48.939Z,53.80
2019-03-28T10:11:14.953Z,52.90
2019-03-28T10:13:40.940Z,53.20
2019-03-28T10:16:07.248Z,52.30
2019-03-28T10:18:33.243Z,51.70
2019-03-28T10:20:59.497Z,51.40
2019-03-28T10:23:25.507Z,50.30
2019-03-28T10:25:51.488Z,51.40
2019-03-28T10:28:17.487Z,49.80
2019-03-28T10:30:44.011Z,49.20
2019-03-28T10:33:10.208Z,49.30
2019-03-28T10:35:36.200Z,49.10
2019-03-28T10:38:03.104Z,50.30
2019-03-28T10:40:29.110Z,50.10
2019-03-28T10:42:55.128Z,49.40
2019-03-28T10:45:21.588Z,50.40
2019-03-28T10:47:47.600Z,50.60
2019-03-28T10:50:13.594Z,51.20
2019-03-28T10:52:39.632Z,51.50
2019-03-28T10:55:05.913Z,52.80
2019-03-28T10:57:32.283Z,53.00
2019-03-28T10:59:58.981Z,51.60
2019-03-28T11:02:28.507Z,50.30
2019-03-28T11:04:53.145Z,48.90
2019-03-28T11:07:19.452Z,49.00
2019-03-28T11:09:45.456Z,48.90
2019-03-28T11:12:11.447Z,48.10
2019-03-28T11:14:37.461Z,48.00
2019-03-28T11:17:03.709Z,47.40
2019-03-28T11:19:29.737Z,46.90
2019-03-28T11:21:55.963Z,47.00
2019-03-28T11:24:21.983Z,45.90
2019-03-28T11:26:47.989Z,45.70
2019-03-28T11:29:13.980Z,46.50
2019-03-28T11:31:46.122Z,46.60
2019-03-28T11:34:08.432Z,46.10
2019-03-28T11:36:34.468Z,45.00
2019-03-28T11:39:02.833Z,45.00
2019-03-28T11:41:29.524Z,45.20
2019-03-28T11:43:55.554Z,44.90
2019-03-28T11:46:21.559Z,44.00
2019-03-28T11:48:47.866Z,43.90
2019-03-28T11:51:13.859Z,43.00
2019-03-28T11:53:39.900Z,42.40
2019-03-28T11:56:06.251Z,42.60
2019-03-28T11:58:32.242Z,41.90
2019-03-28T12:00:58.496Z,42.80
2019-03-28T12:03:24.510Z,42.30
2019-03-28T12:05:53.018Z,41.90
2019-03-28T12:08:18.400Z,43.20
2019-03-28T12:10:44.402Z,43.00
2019-03-28T12:13:10.395Z,43.60
2019-03-28T12:15:36.392Z,45.10
2019-03-28T12:18:02.484Z,45.60
2019-03-28T12:20:28.491Z,45.20
2019-03-28T12:22:56.105Z,46.00
2019-03-28T12:25:22.316Z,46.50
2019-03-28T12:27:48.312Z,46.10
2019-03-28T12:30:16.369Z,45.40
2019-03-28T12:32:42.637Z,44.90
2019-03-28T12:35:09.234Z,45.50
2019-03-28T12:37:35.287Z,45.70
2019-03-28T12:40:01.639Z,46.80
2019-03-28T12:42:27.636Z,46.70
2019-03-28T12:44:57.129Z,47.40
2019-03-28T12:47:21.547Z,46.60
2019-03-28T12:49:47.759Z,47.20
2019-03-28T12:52:13.770Z,47.00
2019-03-28T12:54:40.048Z,46.80
2019-03-28T12:57:06.052Z,45.60
2019-03-28T12:59:33.709Z,44.50
2019-03-28T13:01:59.913Z,43.40
2019-03-28T13:04:26.192Z,42.50
2019-03-28T13:06:52.208Z,42.50
2019-03-28T13:09:18.191Z,43.70
2019-03-28T13:11:44.560Z,43.90
2019-03-28T13:14:12.028Z,43.10
2019-03-28T13:16:38.045Z,43.30
2019-03-28T13:19:04.280Z,43.40
2019-03-28T13:21:30.512Z,43.70
2019-03-28T13:23:56.507Z,44.40
2019-03-28T13:26:22.513Z,45.10
2019-03-28T13:28:48.504Z,45.20
2019-03-28T13:31:14.504Z,44.80
2019-03-28T13:33:40.508Z,45.30
2019-03-28T13:36:06.513Z,45.50
2019-03-28T13:38:32.509Z,45.60
2019-03-28T13:40:58.511Z,44.90
2019-03-28T13:43:24.520Z,44.70
2019-03-28T13:45:50.536Z,43.70
2019-03-28T13:48:16.528Z,43.20
2019-03-28T13:50:42.536Z,42.90
2019-03-28T13:53:08.540Z,42.40
2019-03-28T13:55:34.760Z,42.80
2019-03-28T13:58:01.997Z,42.90
2019-03-28T14:00:29.696Z,43.50
2019-03-28T14:02:58.729Z,44.00
2019-03-28T14:05:23.865Z,45.00
2019-03-28T14:07:49.867Z,45.50
2019-03-28T14:10:15.872Z,46.10
2019-03-28T14:12:41.964Z,46.20
2019-03-28T14:15:08.069Z,46.30
2019-03-28T14:17:35.084Z,45.90
2019-03-28T14:20:01.296Z,45.80
2019-03-28T14:22:27.286Z,45.40
2019-03-28T14:24:53.288Z,45.20
2019-03-28T14:27:19.306Z,46.10
2019-03-28T14:29:45.649Z,45.10
2019-03-28T14:32:11.652Z,45.50
2019-03-28T14:34:39.835Z,45.70
2019-03-28T14:37:06.085Z,45.70
2019-03-28T14:39:32.106Z,44.90
2019-03-28T14:41:58.344Z,45.00
2019-03-28T14:44:24.652Z,45.30
2019-03-28T14:46:50.668Z,46.30
2019-03-28T14:49:16.808Z,45.90
2019-03-28T14:51:42.955Z,45.90
2019-03-28T14:54:09.060Z,46.10
2019-03-28T14:56:35.452Z,46.50
2019-03-28T14:59:01.962Z,46.60
2019-03-28T15:01:27.952Z,46.60
2019-03-28T15:03:53.960Z,47.60
2019-03-28T15:06:19.984Z,47.30
2019-03-28T15:08:45.969Z,47.40
2019-03-28T15:11:11.956Z,47.40
2019-03-28T15:13:40.462Z,47.80
2019-03-28T15:16:06.452Z,48.20
2019-03-28T15:18:32.457Z,48.50
2019-03-28T15:20:58.439Z,48.50
2019-03-28T15:23:24.728Z,48.50
2019-03-28T15:25:50.959Z,48.70
2019-03-28T15:28:17.005Z,48.80
2019-03-28T15:30:43.003Z,48.60
2019-03-28T15:33:09.468Z,48.80
2019-03-28T15:35:35.460Z,49.10
2019-03-28T15:38:02.281Z,49.50
2019-03-28T15:40:28.284Z,48.90
2019-03-28T15:42:54.560Z,49.10
2019-03-28T15:45:20.580Z,49.50
2019-03-28T15:47:47.104Z,48.80
2019-03-28T15:50:13.403Z,48.80
2019-03-28T15:52:39.405Z,48.90
2019-03-28T15:55:05.484Z,49.00
2019-03-28T15:57:31.500Z,50.00
2019-03-28T15:59:57.500Z,49.20
2019-03-28T16:02:23.544Z,49.50
2019-03-28T16:04:49.813Z,49.60
2019-03-28T16:07:15.815Z,49.80
2019-03-28T16:09:41.814Z,50.30
2019-03-28T16:12:07.812Z,50.40
2019-03-28T16:14:34.117Z,50.70
2019-03-28T16:17:00.112Z,50.80
2019-03-28T16:19:26.099Z,51.00
2019-03-28T16:21:52.092Z,50.80
2019-03-28T16:24:18.097Z,51.10
2019-03-28T16:26:44.088Z,51.10
2019-03-28T16:29:10.284Z,51.00
2019-03-28T16:31:36.586Z,51.00
2019-03-28T16:34:07.203Z,50.90
2019-03-28T16:36:30.470Z,50.80
2019-03-28T16:38:56.461Z,50.70
2019-03-28T16:41:24.023Z,51.20
2019-03-28T16:43:50.244Z,50.40
2019-03-28T16:46:16.652Z,50.60
2019-03-28T16:48:42.651Z,50.60
2019-03-28T16:51:08.654Z,50.50
2019-03-28T16:53:35.608Z,50.80
2019-03-28T16:56:02.029Z,50.90
2019-03-28T16:58:28.369Z,50.80
2019-03-28T17:00:54.596Z,51.00
2019-03-28T17:03:20.604Z,51.80
2019-03-28T17:05:47.217Z,51.20
2019-03-28T17:08:14.715Z,51.30
2019-03-28T17:10:45.886Z,51.50
2019-03-28T17:13:12.888Z,51.70
2019-03-28T17:15:39.135Z,52.20
2019-03-28T17:18:05.145Z,51.80
2019-03-28T17:20:31.128Z,51.70
2019-03-28T17:22:57.143Z,51.80
2019-03-28T17:25:23.148Z,52.00
2019-03-28T17:27:49.466Z,52.50
2019-03-28T17:30:15.466Z,52.40
2019-03-28T17:32:41.454Z,52.80
2019-03-28T17:35:07.452Z,53.10
2019-03-28T17:37:33.447Z,53.30
2019-03-28T17:39:59.448Z,53.70
2019-03-28T17:42:25.465Z,53.80
2019-03-28T17:44:51.472Z,53.90
2019-03-28T17:47:17.483Z,53.90
2019-03-28T17:49:43.481Z,54.20
2019-03-28T17:52:09.480Z,54.50
2019-03-28T17:54:35.480Z,54.20
2019-03-28T17:57:01.748Z,54.80
2019-03-28T17:59:27.752Z,55.20
2019-03-28T18:01:53.756Z,55.20
2019-03-28T18:04:23.206Z,55.20
2019-03-28T18:06:48.320Z,55.80
2019-03-28T18:09:14.530Z,56.20
2019-03-28T18:11:40.534Z,57.10
2019-03-28T18:14:06.788Z,56.60
2019-03-28T18:16:32.792Z,56.90
2019-03-28T18:18:58.850Z,57.20
2019-03-28T18:21:24.910Z,57.50
2019-03-28T18:23:50.900Z,57.80
2019-03-28T18:26:16.901Z,58.10
2019-03-28T18:28:42.909Z,58.10
2019-03-28T18:31:08.900Z,58.10
2019-03-28T18:33:34.903Z,58.20
2019-03-28T18:36:00.904Z,58.80
2019-03-28T18:38:26.904Z,58.60
2019-03-28T18:40:52.930Z,59.50
2019-03-28T18:43:18.926Z,59.50
2019-03-28T18:45:44.936Z,60.00
2019-03-28T18:48:11.390Z,59.90
2019-03-28T18:50:40.956Z,59.70
2019-03-28T18:53:05.871Z,58.90
2019-03-28T18:55:31.873Z,58.90
2019-03-28T18:57:57.892Z,58.80
2019-03-28T19:00:24.223Z,58.70
2019-03-28T19:02:50.446Z,58.50
2019-03-28T19:05:20.125Z,59.00
2019-03-28T19:07:44.348Z,58.90
2019-03-28T19:10:11.239Z,59.20
2019-03-28T19:12:37.860Z,59.20
2019-03-28T19:15:05.460Z,59.60
2019-03-28T19:17:31.461Z,59.20
2019-03-28T19:19:59.535Z,59.20
2019-03-28T19:22:25.456Z,59.10
2019-03-28T19:24:51.469Z,59.20
2019-03-28T19:27:18.721Z,59.20
2019-03-28T19:29:45.020Z,59.50
2019-03-28T19:32:11.031Z,59.60
2019-03-28T19:34:37.092Z,60.00
2019-03-28T19:37:03.084Z,60.30
2019-03-28T19:39:31.282Z,60.80
2019-03-28T19:41:57.302Z,60.90
2019-03-28T19:44:25.825Z,60.90
2019-03-28T19:46:51.324Z,60.70
2019-03-28T19:49:17.321Z,60.80
2019-03-28T19:51:43.318Z,61.10
2019-03-28T19:54:09.902Z,61.30
2019-03-28T19:56:37.695Z,61.50
2019-03-28T19:59:03.739Z,61.80
2019-03-28T20:01:29.962Z,62.20
2019-03-28T20:03:56.217Z,61.80
2019-03-28T20:06:22.735Z,62.30
2019-03-28T20:08:50.408Z,63.10
2019-03-28T20:11:16.472Z,63.20
2019-03-28T20:13:42.601Z,63.00
2019-03-28T20:16:08.604Z,64.20
2019-03-28T20:18:35.805Z,64.40
2019-03-28T20:21:01.935Z,65.10
2019-03-28T20:23:27.950Z,65.50
2019-03-28T20:25:53.955Z,65.40
2019-03-28T20:28:19.940Z,65.80
2019-03-28T20:30:46.268Z,65.70
2019-03-28T20:33:12.600Z,65.60
2019-03-28T20:35:38.613Z,65.50
2019-03-28T20:38:04.612Z,65.30
2019-03-28T20:40:30.618Z,65.50
2019-03-28T20:42:56.620Z,66.30
2019-03-28T20:45:22.712Z,67.30
2019-03-28T20:47:48.720Z,67.70
2019-03-28T20:50:15.233Z,67.40
2019-03-28T20:52:41.614Z,67.90
2019-03-28T20:55:08.174Z,67.50
2019-03-28T20:57:34.188Z,67.60
2019-03-28T21:00:00.339Z,68.10
2019-03-28T21:02:26.480Z,68.40
2019-03-28T21:04:52.482Z,68.70
2019-03-28T21:07:19.201Z,68.60
2019-03-28T21:09:45.184Z,69.30
2019-03-28T21:12:11.176Z,69.50
2019-03-28T21:14:37.184Z,70.50
2019-03-28T21:17:03.179Z,71.00
2019-03-28T21:19:29.175Z,72.50
2019-03-28T21:21:55.270Z,73.00
2019-03-28T21:24:21.367Z,73.60
2019-03-28T21:26:47.356Z,75.10
2019-03-28T21:29:13.356Z,75.30
2019-03-28T21:31:49.125Z,75.50
2019-03-28T21:34:07.302Z,75.70
2019-03-28T21:36:33.448Z,76.10
2019-03-28T21:38:59.462Z,76.90
2019-03-28T21:41:25.439Z,78.10
2019-03-28T21:43:51.813Z,78.60
2019-03-28T21:46:17.811Z,79.80
2019-03-28T21:48:43.828Z,80.20
2019-03-28T21:51:11.517Z,80.50
2019-03-28T21:53:37.712Z,80.80
2019-03-28T21:56:03.988Z,81.90
2019-03-28T21:58:30.116Z,83.80
2019-03-28T22:00:56.792Z,83.70
2019-03-28T22:03:22.780Z,84.00
2019-03-28T22:05:48.784Z,85.10
2019-03-28T22:08:15.032Z,85.00
2019-03-28T22:10:41.437Z,85.50
2019-03-28T22:13:07.656Z,86.80
2019-03-28T22:15:33.663Z,87.00
2019-03-28T22:17:59.653Z,87.40
2019-03-28T22:20:25.647Z,87.80
2019-03-28T22:22:51.892Z,88.20
2019-03-28T22:25:17.892Z,89.10
2019-03-28T22:27:47.188Z,89.70
2019-03-28T22:30:13.317Z,89.90
2019-03-28T22:32:39.423Z,90.00
2019-03-28T22:35:05.928Z,90.40
2019-03-28T22:37:31.928Z,90.40
2019-03-28T22:39:58.248Z,91.20
2019-03-28T22:42:24.261Z,91.40
2019-03-28T22:44:50.988Z,92.20
2019-03-28T22:47:17.272Z,92.20
2019-03-28T22:49:43.572Z,92.30
2019-03-28T22:52:09.576Z,92.40
2019-03-28T22:54:35.576Z,93.20
2019-03-28T22:57:01.863Z,94.00
2019-03-28T22:59:27.869Z,94.00
2019-03-28T23:01:53.874Z,93.40
2019-03-28T23:04:19.860Z,94.20
2019-03-28T23:06:45.852Z,94.80
2019-03-28T23:09:11.857Z,95.40
2019-03-28T23:11:40.424Z,95.80
2019-03-28T23:14:05.803Z,96.40
2019-03-28T23:16:31.911Z,97.20
2019-03-28T23:18:57.904Z,97.20
2019-03-28T23:21:23.942Z,97.60
2019-03-28T23:23:49.949Z,97.70
2019-03-28T23:26:15.944Z,98.30
2019-03-28T23:28:41.947Z,99.10
2019-03-28T23:31:07.940Z,99.50
2019-03-28T23:33:33.940Z,99.20
2019-03-28T23:35:59.933Z,99.10
2019-03-28T23:38:25.993Z,98.80
2019-03-28T23:40:51.990Z,98.60
2019-03-28T23:43:18.001Z,98.80
2019-03-28T23:45:44.284Z,99.10
2019-03-28T23:48:10.307Z,99.40
2019-03-28T23:50:36.300Z,99.90
2019-03-28T23:53:02.299Z,99.90
2019-03-28T23:55:28.512Z,99.90
2019-03-28T23:57:55.179Z,99.90
